createdAt,value
2022-12-08T00:02:53.003Z,14.33
2022-12-08T00:08:13.629Z,13.37
2022-12-08T00:13:15.498Z,14.80
2022-12-08T00:18:17.298Z,15.03
2022-12-08T00:23:19.092Z,13.60
2022-12-08T00:28:20.938Z,13.70
2022-12-08T00:33:22.801Z,13.40
2022-12-08T00:38:24.479Z,14.40
2022-12-08T00:43:26.869Z,13.00
2022-12-08T00:48:28.623Z,12.83
2022-12-08T00:53:31.823Z,13.57
2022-12-08T00:58:33.625Z,13.67
2022-12-08T01:03:35.462Z,13.33
2022-12-08T01:08:38.117Z,12.17
2022-12-08T01:13:40.088Z,14.70
2022-12-08T01:18:41.863Z,13.67
2022-12-08T01:23:44.028Z,12.10
2022-12-08T01:28:47.137Z,13.43
2022-12-08T01:33:48.994Z,12.77
2022-12-08T01:38:51.409Z,13.20
2022-12-08T01:44:04.390Z,12.43
2022-12-08T01:49:17.948Z,13.03
2022-12-08T01:54:23.523Z,12.00
2022-12-08T01:59:26.208Z,13.03
2022-12-08T02:04:27.920Z,13.83
2022-12-08T02:09:29.672Z,12.37
2022-12-08T02:14:32.348Z,6.37
2022-12-08T02:20:05.804Z,7.97
2022-12-08T02:25:19.742Z,9.87
2022-12-08T02:30:25.805Z,12.40
2022-12-08T02:35:36.503Z,12.37
2022-12-08T02:41:01.227Z,13.77
2022-12-08T02:46:07.586Z,13.33
2022-12-08T02:51:09.358Z,12.50
2022-12-08T02:56:41.647Z,13.53
2022-12-08T03:02:01.428Z,13.00
2022-12-08T03:07:33.835Z,12.27
2022-12-08T03:12:48.138Z,12.50
2022-12-08T03:17:56.566Z,13.27
2022-12-08T03:23:00.352Z,13.03
2022-12-08T03:28:02.288Z,14.43
2022-12-08T03:33:17.673Z,14.03
2022-12-08T03:38:19.832Z,12.90
2022-12-08T03:43:21.694Z,12.83
2022-12-08T03:48:23.430Z,13.53
2022-12-08T03:53:26.057Z,17.40
2022-12-08T03:58:30.770Z,15.80
2022-12-08T04:03:34.809Z,14.93
2022-12-08T04:08:36.545Z,13.87
2022-12-08T04:13:39.863Z,14.90
2022-12-08T04:18:41.575Z,13.27
2022-12-08T04:23:43.726Z,12.93
2022-12-08T04:28:45.566Z,14.33
2022-12-08T04:33:47.388Z,13.97
2022-12-08T04:38:49.101Z,14.60
2022-12-08T04:43:50.841Z,13.90
2022-12-08T04:48:52.585Z,15.23
2022-12-08T04:53:54.451Z,15.43
2022-12-08T04:58:56.113Z,17.30
2022-12-08T05:05:13.652Z,16.03
2022-12-08T05:10:15.350Z,18.97
2022-12-08T05:15:17.046Z,20.20
2022-12-08T05:20:18.700Z,21.27
2022-12-08T05:25:20.312Z,16.87
2022-12-08T05:30:21.906Z,16.53
2022-12-08T05:35:23.512Z,16.97
2022-12-08T05:40:25.102Z,15.97
2022-12-08T05:45:26.833Z,19.17
2022-12-08T05:50:28.619Z,16.13
2022-12-08T05:55:30.475Z,15.30
2022-12-08T06:00:34.836Z,14.37
2022-12-08T06:05:36.514Z,14.33
2022-12-08T06:10:39.694Z,14.17
2022-12-08T06:15:41.632Z,14.50
2022-12-08T06:20:43.289Z,15.30
2022-12-08T06:25:45.053Z,14.00
2022-12-08T06:30:46.824Z,15.07
2022-12-08T06:35:48.666Z,15.70
2022-12-08T06:40:54.838Z,15.57
2022-12-08T06:45:56.574Z,15.60
2022-12-08T06:50:58.292Z,15.73
2022-12-08T06:56:00.229Z,16.03
2022-12-08T07:01:06.885Z,13.93
2022-12-08T07:06:08.694Z,17.07
2022-12-08T07:11:14.218Z,19.37
2022-12-08T07:16:20.106Z,17.40
2022-12-08T07:21:21.874Z,15.23
2022-12-08T07:26:23.728Z,15.40
2022-12-08T07:31:26.490Z,14.10
2022-12-08T07:36:28.378Z,15.17
2022-12-08T07:41:30.134Z,13.60
2022-12-08T07:46:32.007Z,15.67
2022-12-08T07:51:33.767Z,14.93
2022-12-08T07:56:35.591Z,14.47
2022-12-08T08:01:37.490Z,16.47
2022-12-08T08:06:39.423Z,15.87
2022-12-08T08:11:41.228Z,15.07
2022-12-08T08:16:46.889Z,16.80
2022-12-08T08:21:48.734Z,19.47
2022-12-08T08:26:50.727Z,20.33
2022-12-08T08:31:52.496Z,19.73
2022-12-08T08:36:54.296Z,22.17
2022-12-08T08:41:55.983Z,25.13
2022-12-08T08:46:57.748Z,25.20
2022-12-08T08:51:59.539Z,27.17
2022-12-08T08:57:01.829Z,20.20
2022-12-08T09:02:03.706Z,18.97
2022-12-08T09:07:05.552Z,20.37
2022-12-08T09:12:07.642Z,20.23
2022-12-08T09:17:09.442Z,20.17
2022-12-08T09:22:11.103Z,20.60
2022-12-08T09:27:12.798Z,22.20
2022-12-08T09:32:14.524Z,19.50
2022-12-08T09:37:16.312Z,19.83
2022-12-08T09:42:30.983Z,16.93
2022-12-08T09:47:39.765Z,19.03
2022-12-08T09:52:47.117Z,17.93
2022-12-08T09:58:00.141Z,18.27
2022-12-08T10:03:02.030Z,19.43
2022-12-08T10:08:21.260Z,18.83
2022-12-08T10:13:45.071Z,18.90
2022-12-08T10:18:46.746Z,18.40
2022-12-08T10:23:53.558Z,18.70
2022-12-08T10:29:01.341Z,18.30
2022-12-08T10:34:16.410Z,18.77
2022-12-08T10:39:37.405Z,20.63
2022-12-08T10:44:53.432Z,19.10
2022-12-08T10:50:18.967Z,17.87
2022-12-08T10:55:21.750Z,17.40
2022-12-08T11:06:21.676Z,16.33
2022-12-08T11:11:47.286Z,16.33
2022-12-08T11:16:51.521Z,15.93
2022-12-08T11:21:53.443Z,17.17
2022-12-08T11:27:02.359Z,16.00
2022-12-08T11:32:12.874Z,16.13
2022-12-08T11:37:35.963Z,14.40
2022-12-08T11:42:54.997Z,15.63
2022-12-08T11:48:19.564Z,15.70
2022-12-08T11:53:30.023Z,15.17
2022-12-08T11:58:39.348Z,15.00
2022-12-08T12:03:47.367Z,14.23
2022-12-08T12:09:11.361Z,11.87
2022-12-08T12:14:34.875Z,13.90
2022-12-08T12:19:39.551Z,12.03
2022-12-08T12:24:44.324Z,11.37
2022-12-08T12:30:05.085Z,14.77
2022-12-08T12:35:17.956Z,14.73
2022-12-08T12:40:24.330Z,15.90
2022-12-08T12:45:26.033Z,16.37
2022-12-08T12:50:33.731Z,12.70
2022-12-08T12:55:56.652Z,13.07
2022-12-08T13:01:10.421Z,13.90
2022-12-08T13:06:15.084Z,12.27
2022-12-08T13:11:17.047Z,11.50
2022-12-08T13:16:24.164Z,11.07
2022-12-08T13:21:36.890Z,10.80
2022-12-08T13:27:03.343Z,10.60
2022-12-08T13:33:09.642Z,10.37
2022-12-08T13:38:06.975Z,10.13
2022-12-08T13:43:45.198Z,9.23
2022-12-08T13:51:23.859Z,6.77
2022-12-08T13:55:12.245Z,9.37
2022-12-08T13:59:48.496Z,7.57
2022-12-08T14:10:20.405Z,7.00
2022-12-08T14:15:23.222Z,7.37
2022-12-08T14:20:27.865Z,5.80
2022-12-08T14:25:30.169Z,6.23
2022-12-08T14:30:33.178Z,7.47
2022-12-08T14:35:37.095Z,8.10
2022-12-08T14:40:40.007Z,7.73
2022-12-08T14:45:41.633Z,7.80
2022-12-08T14:51:03.325Z,8.13
2022-12-08T14:56:26.793Z,6.67
2022-12-08T15:01:28.865Z,8.20
2022-12-08T15:06:30.658Z,8.33
2022-12-08T15:11:35.116Z,11.13
2022-12-08T15:16:36.724Z,10.10
2022-12-08T15:21:38.977Z,11.47
2022-12-08T15:26:49.079Z,10.17
2022-12-08T15:31:52.812Z,9.67
2022-12-08T15:36:55.079Z,9.70
2022-12-08T15:41:57.312Z,9.97
2022-12-08T15:47:00.035Z,10.43
2022-12-08T15:52:11.321Z,11.53
2022-12-08T15:57:59.092Z,10.53
2022-12-08T16:03:18.395Z,11.40
2022-12-08T16:08:38.297Z,10.57
2022-12-08T16:14:16.663Z,11.30
2022-12-08T16:19:17.106Z,11.47
2022-12-08T16:24:18.954Z,12.00
2022-12-08T16:29:22.612Z,12.20
2022-12-08T16:34:24.212Z,13.87
2022-12-08T16:39:26.085Z,17.13
2022-12-08T16:44:27.707Z,14.50
2022-12-08T16:49:29.363Z,20.43
2022-12-08T16:54:31.035Z,19.10
2022-12-08T16:59:32.657Z,14.77
2022-12-08T17:04:34.325Z,18.80
2022-12-08T17:09:36.030Z,16.07
2022-12-08T17:14:37.783Z,17.67
2022-12-08T17:19:39.537Z,16.93
2022-12-08T17:24:41.157Z,19.23
2022-12-08T17:29:42.720Z,18.57
2022-12-08T17:34:44.637Z,16.90
2022-12-08T17:39:46.395Z,16.97
2022-12-08T17:44:47.954Z,18.27
2022-12-08T17:49:49.647Z,21.70
2022-12-08T17:54:51.241Z,20.93
2022-12-08T17:59:52.927Z,19.93
2022-12-08T18:04:54.564Z,25.63
2022-12-08T18:09:56.560Z,35.30
2022-12-08T18:14:58.237Z,33.80
2022-12-08T18:19:59.844Z,24.10
2022-12-08T18:25:01.426Z,33.40
2022-12-08T18:30:04.675Z,26.30
2022-12-08T18:35:06.990Z,23.97
2022-12-08T18:40:09.643Z,30.73
2022-12-08T18:45:11.488Z,32.27
2022-12-08T18:50:13.259Z,31.87
2022-12-08T18:55:15.680Z,22.47
2022-12-08T19:00:19.386Z,22.53
2022-12-08T19:05:20.982Z,21.53
2022-12-08T19:10:22.582Z,35.43
2022-12-08T19:15:24.489Z,24.47
2022-12-08T19:20:27.426Z,18.10
2022-12-08T19:25:29.051Z,20.57
2022-12-08T19:30:33.415Z,23.60
2022-12-08T19:35:36.270Z,24.33
2022-12-08T19:40:58.956Z,33.37
2022-12-08T19:46:00.777Z,25.43
2022-12-08T19:51:02.525Z,19.23
2022-12-08T19:56:04.824Z,16.73
2022-12-08T20:01:06.615Z,16.67
2022-12-08T20:06:15.601Z,15.60
2022-12-08T20:11:17.319Z,17.20
2022-12-08T20:16:19.346Z,16.13
2022-12-08T20:21:22.091Z,16.27
2022-12-08T20:26:24.508Z,16.20
2022-12-08T20:31:29.616Z,15.60
2022-12-08T20:36:31.627Z,15.60
2022-12-08T20:41:38.791Z,15.00
2022-12-08T20:46:44.985Z,14.17
2022-12-08T20:51:49.927Z,14.20
2022-12-08T20:56:52.061Z,14.33
2022-12-08T21:01:54.149Z,16.17
2022-12-08T21:06:56.044Z,21.90
2022-12-08T21:11:57.831Z,21.43
2022-12-08T21:16:59.607Z,22.37
2022-12-08T21:22:01.528Z,22.43
2022-12-08T21:27:03.394Z,20.60
2022-12-08T21:32:05.596Z,23.77
2022-12-08T21:37:07.431Z,23.83
2022-12-08T21:42:33.887Z,22.70
2022-12-08T21:47:36.191Z,20.03
2022-12-08T21:52:39.820Z,18.60
2022-12-08T21:57:41.744Z,18.93
2022-12-08T22:02:43.795Z,21.40
2022-12-08T22:07:45.737Z,17.23
2022-12-08T22:12:47.620Z,18.70
2022-12-08T22:17:49.482Z,15.73
2022-12-08T22:22:51.165Z,15.57
2022-12-08T22:27:52.837Z,12.93
2022-12-08T22:32:54.778Z,12.20
2022-12-08T22:37:56.502Z,12.17
2022-12-08T22:42:58.306Z,12.57
2022-12-08T22:47:59.974Z,12.47
2022-12-08T22:53:02.037Z,11.50
2022-12-08T22:58:03.737Z,10.57
2022-12-08T23:03:06.371Z,11.23
2022-12-08T23:08:09.376Z,12.10
2022-12-08T23:13:12.434Z,15.17
2022-12-08T23:18:16.771Z,17.50
2022-12-08T23:23:18.382Z,13.10
2022-12-08T23:28:20.211Z,11.27
2022-12-08T23:33:22.002Z,10.17
2022-12-08T23:38:24.126Z,10.57
2022-12-08T23:43:25.782Z,10.03
2022-12-08T23:48:29.222Z,9.70
2022-12-08T23:53:32.431Z,9.77
2022-12-08T23:58:35.554Z,9.07
